Time;durP1;ratioP1;P1;durP2;ratioP2;P2;SDS_P1;SDS_P2;PMS_P1;PMS_P2;Temp;Humidity;BMP_temperature;BMP_pressure;BME280_temperature;BME280_humidity;BME280_pressure;Samples;Min_cycle;Max_cycle;Signal;HPM_P1;HPM_P2
2021/10/10 00:01:43;;;;;;;;;;;;;;;2.85;69.82;101592.69;1378046;86;22825;31
2021/10/10 00:06:41;;;;;;;;;;;;;;;2.90;69.59;101590.72;1375489;86;20252;31
2021/10/10 00:09:10;;;;;;;;;;;;;;;2.94;70.21;101583.14;1378641;86;21220;31
2021/10/10 00:11:42;;;;;;;;;;;;;;;2.99;69.74;101583.75;1376013;86;20260;31
2021/10/10 00:16:39;;;;;;;;;;;;;;;3.04;69.37;101579.16;1378133;86;21421;31
2021/10/10 00:30:01;;;;;;;;;;;;;;;3.12;68.42;101585.36;1376859;86;21296;31
2021/10/10 00:32:31;;;;;;;;;;;;;;;3.14;68.14;101582.22;1371953;86;20577;31
2021/10/10 00:35:02;;;;;;;;;;;;;;;3.14;68.71;101577.84;1375338;86;20266;31
2021/10/10 00:37:31;;;;;;;;;;;;;;;3.18;68.62;101576.37;1379124;86;20267;31
2021/10/10 00:40:02;;;;;;;;;;;;;;;3.21;68.84;101577.54;1364991;87;20405;31
2021/10/10 00:42:32;;;;;;;;;;;;;;;3.22;68.17;101577.92;1370936;86;20241;31
2021/10/10 00:45:04;;;;;;;;;;;;;;;3.27;68.08;101578.55;1357571;88;21251;31
2021/10/10 00:50:08;;;;;;;;;;;;;;;3.27;67.73;101578.09;1336932;88;20272;31
2021/10/10 00:52:43;;;;;;;;;;;;;;;3.25;68.38;101574.72;1342982;89;23431;31
2021/10/10 01:00:10;;;;;;;;;;;;;;;3.27;68.37;101566.78;1367968;88;20308;31
2021/10/10 01:02:43;;;;;;;;;;;;;;;3.29;67.97;101563.64;1345490;88;21445;31
2021/10/10 01:07:40;;;;;;;;;;;;;;;3.33;67.96;101562.09;1369260;87;20360;31
2021/10/10 01:10:13;;;;;;;;;;;;;;;3.33;67.47;101556.02;1372904;86;20279;31
2021/10/10 01:15:12;;;;;;;;;;;;;;;3.37;67.96;101548.42;1351898;88;20324;31
2021/10/10 01:17:47;;;;;;;;;;;;;;;3.38;67.30;101541.80;1356379;86;20247;31
2021/10/10 01:33:37;;;;;;;;;;;;;;;3.42;67.15;101545.10;1353966;87;20383;31
2021/10/10 01:38:52;;;;;;;;;;;;;;;3.41;67.26;101531.64;1379212;90;20175;-84
2021/10/10 01:43:54;;;;;;;;;;;;;;;3.40;66.91;101537.81;1381408;86;20357;31
2021/10/10 01:46:27;;;;;;;;;;;;;;;3.40;66.73;101539.12;1375818;86;20323;31
2021/10/10 01:51:23;;;;;;;;;;;;;;;3.41;66.83;101538.19;1363435;89;20308;31
2021/10/10 01:53:53;;;;;;;;;;;;;;;3.42;66.47;101543.80;1361214;89;20279;31
2021/10/10 01:56:22;;;;;;;;;;;;;;;3.43;67.01;101533.73;1360515;89;23281;31
2021/10/10 01:58:52;;;;;;;;;;;;;;;3.44;66.94;101540.65;1363143;89;20469;31
2021/10/10 02:01:19;;;;;;;;;;;;;;;3.44;67.38;101538.03;1358784;89;20558;31
2021/10/10 02:03:48;;;;;;;;;;;;;;;3.44;67.08;101543.27;1362234;89;20293;31
2021/10/10 02:06:18;;;;;;;;;;;;;;;3.44;66.79;101536.73;1362900;89;20374;31
2021/10/10 02:08:44;;;;;;;;;;;;;;;3.47;66.87;101534.42;1352496;86;20902;-86
2021/10/10 02:11:10;;;;;;;;;;;;;;;3.50;67.33;101532.50;1380539;88;20323;-91
2021/10/10 02:13:36;;;;;;;;;;;;;;;3.53;67.50;101532.34;1379472;90;20249;-90
2021/10/10 02:16:02;;;;;;;;;;;;;;;3.58;66.75;101519.04;1378944;90;20251;-90
2021/10/10 02:18:28;;;;;;;;;;;;;;;3.60;66.56;101515.89;1378883;90;20272;-90
2021/10/10 02:20:54;;;;;;;;;;;;;;;3.59;67.08;101503.23;1379223;90;20226;-90
2021/10/10 02:30:55;;;;;;;;;;;;;;;3.63;66.37;101513.59;1359408;88;20272;31
2021/10/10 02:33:25;;;;;;;;;;;;;;;3.63;66.14;101512.28;1351309;88;20315;31
2021/10/10 02:35:54;;;;;;;;;;;;;;;3.64;66.47;101510.03;1363583;89;21416;31
2021/10/10 02:38:24;;;;;;;;;;;;;;;3.66;66.10;101505.58;1363473;89;21252;31
2021/10/10 02:40:50;;;;;;;;;;;;;;;3.68;66.29;101503.70;1403100;88;20181;-90
2021/10/10 02:43:16;;;;;;;;;;;;;;;3.69;66.19;101494.48;1405957;88;20244;-89
2021/10/10 02:45:42;;;;;;;;;;;;;;;3.67;66.25;101500.25;1405968;88;20329;-91
2021/10/10 02:48:09;;;;;;;;;;;;;;;3.65;66.31;101507.33;1405918;88;20269;-91
2021/10/10 02:53:05;;;;;;;;;;;;;;;3.67;66.20;101515.12;1361745;89;21476;31
2021/10/10 02:55:34;;;;;;;;;;;;;;;3.67;66.09;101509.41;1359522;89;20354;31
2021/10/10 02:58:03;;;;;;;;;;;;;;;3.63;66.44;101508.35;1358041;89;21299;31
2021/10/10 03:00:31;;;;;;;;;;;;;;;3.58;66.72;101505.95;1331715;88;20340;31
2021/10/10 03:03:00;;;;;;;;;;;;;;;3.54;66.63;101502.65;1362151;88;20303;31
2021/10/10 03:05:28;;;;;;;;;;;;;;;3.49;66.86;101507.25;1371430;87;21476;31
2021/10/10 03:08:00;;;;;;;;;;;;;;;3.44;66.56;101505.31;1389093;86;20321;31
2021/10/10 03:13:00;;;;;;;;;;;;;;;3.38;67.29;101492.07;1328343;90;20312;31
2021/10/10 03:18:00;;;;;;;;;;;;;;;3.40;66.77;101489.39;1359922;88;20287;31
2021/10/10 03:22:58;;;;;;;;;;;;;;;3.48;66.94;101496.41;1387010;86;20239;31
2021/10/10 03:25:28;;;;;;;;;;;;;;;3.56;67.06;101486.84;1366465;88;20323;31
2021/10/10 03:27:54;;;;;;;;;;;;;;;3.57;66.65;101486.78;1345874;92;20194;-91
2021/10/10 03:30:20;;;;;;;;;;;;;;;3.58;66.90;101482.39;1354587;92;20343;-90
2021/10/10 03:32:46;;;;;;;;;;;;;;;3.56;66.69;101489.00;1376296;86;22576;31
2021/10/10 03:35:19;;;;;;;;;;;;;;;3.54;66.62;101493.48;1389964;86;22613;31
2021/10/10 03:40:17;;;;;;;;;;;;;;;3.49;66.80;101485.00;1356617;88;20256;31
2021/10/10 03:42:49;;;;;;;;;;;;;;;3.43;66.79;101487.94;1358354;88;20226;31
2021/10/10 03:47:46;;;;;;;;;;;;;;;3.30;67.83;101488.13;1325924;92;20254;31
2021/10/10 04:00:30;;;;;;;;;;;;;;;3.07;67.71;101484.02;1386140;86;20359;31
2021/10/10 04:02:59;;;;;;;;;;;;;;;3.12;67.65;101490.72;1392669;87;20245;-90
2021/10/10 04:05:38;;;;;;;;;;;;;;;3.11;67.73;101478.58;1409846;87;20224;-91
2021/10/10 04:07:52;;;;;;;;;;;;;;;3.09;68.22;101476.48;1408424;88;20252;-90
2021/10/10 04:10:18;;;;;;;;;;;;;;;3.13;68.42;101474.56;1409566;88;20224;-91
2021/10/10 04:15:12;;;;;;;;;;;;;;;3.16;67.76;101484.44;1390496;87;20322;-91
2021/10/10 04:17:40;;;;;;;;;;;;;;;3.14;67.95;101483.66;1424390;86;20244;-91
2021/10/10 04:20:07;;;;;;;;;;;;;;;3.16;68.13;101480.52;1422933;87;20333;-91
2021/10/10 04:22:33;;;;;;;;;;;;;;;3.18;68.29;101479.58;1423016;87;20185;-91
2021/10/10 04:24:59;;;;;;;;;;;;;;;3.16;68.08;101476.59;1422992;87;20208;-90
2021/10/10 04:27:26;;;;;;;;;;;;;;;3.15;67.84;101469.64;1423113;87;20179;-90
2021/10/10 04:29:52;;;;;;;;;;;;;;;3.16;67.98;101468.75;1423014;86;20304;-90
2021/10/10 04:32:18;;;;;;;;;;;;;;;3.19;68.02;101473.42;1422664;87;20260;-90
2021/10/10 04:34:44;;;;;;;;;;;;;;;3.13;68.08;101468.86;1422690;86;20237;-90
2021/10/10 04:39:41;;;;;;;;;;;;;;;3.15;67.52;101463.11;1353601;89;20250;31
2021/10/10 04:42:10;;;;;;;;;;;;;;;3.14;67.73;101454.88;1341929;90;21563;31
2021/10/10 04:44:37;;;;;;;;;;;;;;;3.16;67.37;101453.05;1329548;90;21464;31
2021/10/10 04:47:07;;;;;;;;;;;;;;;3.18;67.36;101456.88;1338973;90;20234;31
2021/10/10 04:49:36;;;;;;;;;;;;;;;3.22;67.71;101452.34;1344440;89;20325;31
2021/10/10 04:52:02;;;;;;;;;;;;;;;3.25;67.12;101452.19;1360498;88;20383;-91
2021/10/10 04:54:29;;;;;;;;;;;;;;;3.28;67.84;101455.95;1364521;91;20328;-89
2021/10/10 04:56:55;;;;;;;;;;;;;;;3.31;67.26;101461.03;1364245;91;20229;-88
2021/10/10 04:59:21;;;;;;;;;;;;;;;3.37;67.13;101469.92;1365620;90;20244;-89
2021/10/10 05:04:16;;;;;;;;;;;;;;;3.45;66.55;101474.28;1375233;86;20764;-90
2021/10/10 05:06:42;;;;;;;;;;;;;;;3.52;66.37;101479.61;1363019;91;20266;-88
2021/10/10 05:09:08;;;;;;;;;;;;;;;3.59;66.61;101481.45;1362581;91;20838;-89
2021/10/10 05:11:33;;;;;;;;;;;;;;;3.67;65.76;101488.94;1362348;91;20340;-89
2021/10/10 05:13:59;;;;;;;;;;;;;;;3.72;66.04;101484.32;1361001;90;20278;-89
2021/10/10 05:18:54;;;;;;;;;;;;;;;3.87;65.46;101476.98;1379277;88;20201;-91
2021/10/10 05:23:48;;;;;;;;;;;;;;;4.05;64.95;101473.39;1381869;86;20243;-90
2021/10/10 05:26:14;;;;;;;;;;;;;;;4.14;64.67;101469.91;1372208;86;20264;-90
2021/10/10 05:31:08;;;;;;;;;;;;;;;4.31;64.92;101477.73;1399039;87;20229;-89
2021/10/10 05:33:34;;;;;;;;;;;;;;;4.39;64.29;101483.42;1402121;88;20237;-89
2021/10/10 05:36:00;;;;;;;;;;;;;;;4.50;63.83;101483.69;1401441;88;20230;-89
2021/10/10 05:38:27;;;;;;;;;;;;;;;4.61;63.66;101480.97;1401913;88;20310;-89
2021/10/10 05:40:53;;;;;;;;;;;;;;;4.65;63.22;101486.41;1401923;88;20236;-90
2021/10/10 05:43:19;;;;;;;;;;;;;;;4.82;63.35;101491.58;1402595;88;20325;-90
2021/10/10 05:45:45;;;;;;;;;;;;;;;4.91;62.33;101491.06;1402339;88;20193;-89
2021/10/10 05:48:11;;;;;;;;;;;;;;;5.02;62.06;101490.47;1399642;88;20339;-90
2021/10/10 05:50:37;;;;;;;;;;;;;;;5.12;61.82;101484.23;1385728;89;20253;-89
2021/10/10 05:53:07;;;;;;;;;;;;;;;5.15;61.15;101487.98;1397785;88;20837;-90
2021/10/10 05:55:30;;;;;;;;;;;;;;;5.24;60.75;101490.12;1382888;89;20239;-89
2021/10/10 05:58:01;;;;;;;;;;;;;;;5.29;60.50;101485.90;1395828;89;20883;-90
2021/10/10 06:00:24;;;;;;;;;;;;;;;5.40;61.44;101483.03;1402312;89;20852;-87
2021/10/10 06:02:50;;;;;;;;;;;;;;;5.50;60.44;101487.78;1399658;88;20349;-89
2021/10/10 06:05:16;;;;;;;;;;;;;;;5.56;59.72;101490.05;1367815;91;20315;-90
2021/10/10 06:07:43;;;;;;;;;;;;;;;5.64;60.40;101486.51;1376076;86;22022;31
2021/10/10 06:10:13;;;;;;;;;;;;;;;5.65;59.01;101486.40;1368650;88;20249;31
2021/10/10 06:12:42;;;;;;;;;;;;;;;5.72;59.38;101485.56;1359732;89;20373;31
2021/10/10 06:15:09;;;;;;;;;;;;;;;5.79;59.19;101486.07;1369898;88;20193;-87
2021/10/10 06:17:36;;;;;;;;;;;;;;;5.80;58.99;101482.02;1381348;86;20245;31
2021/10/10 06:20:08;;;;;;;;;;;;;;;5.82;58.61;101490.66;1383585;86;21835;31
2021/10/10 06:22:37;;;;;;;;;;;;;;;5.91;59.21;101491.06;1378636;86;20312;31
2021/10/10 06:25:04;;;;;;;;;;;;;;;5.99;58.48;101488.38;1337327;93;20300;-88
2021/10/10 06:27:30;;;;;;;;;;;;;;;6.10;58.19;101490.38;1334575;93;20336;-90
2021/10/10 06:29:56;;;;;;;;;;;;;;;6.16;58.19;101484.73;1334608;93;20226;-89
2021/10/10 06:32:23;;;;;;;;;;;;;;;6.25;58.10;101489.42;1334753;93;20338;-89
2021/10/10 06:34:49;;;;;;;;;;;;;;;6.35;57.91;101488.86;1334517;93;20835;-89
2021/10/10 06:37:15;;;;;;;;;;;;;;;6.36;56.71;101490.53;1335150;93;20285;-93
2021/10/10 06:42:10;;;;;;;;;;;;;;;6.54;57.38;101495.99;1394644;86;20318;-86
2021/10/10 06:44:43;;;;;;;;;;;;;;;6.64;56.80;101495.78;1349160;87;20208;31
2021/10/10 06:47:10;;;;;;;;;;;;;;;6.67;55.77;101489.48;1375702;86;20183;-89
2021/10/10 06:49:36;;;;;;;;;;;;;;;6.75;55.09;101489.84;1395567;87;20237;-89
2021/10/10 06:52:03;;;;;;;;;;;;;;;6.90;56.13;101482.76;1402409;86;20243;-90
2021/10/10 06:57:45;;;;;;;;;;;;;;;7.09;54.58;101472.75;1390066;86;20171;-88
2021/10/10 07:00:12;;;;;;;;;;;;;;;7.24;54.08;101475.69;1401056;88;20386;-89
2021/10/10 07:05:06;;;;;;;;;;;;;;;7.46;53.75;101467.70;1380803;86;20228;-91
2021/10/10 07:07:32;;;;;;;;;;;;;;;7.55;53.57;101472.83;1375325;87;20177;-90
2021/10/10 07:09:58;;;;;;;;;;;;;;;7.67;53.51;101466.25;1357910;86;20228;-91
2021/10/10 07:12:24;;;;;;;;;;;;;;;7.84;53.32;101474.33;1342379;93;21221;-91
2021/10/10 07:19:54;;;;;;;;;;;;;;;8.23;52.02;101469.05;1385388;86;20394;31
2021/10/10 07:25:07;;;;;;;;;;;;;;;8.57;52.30;101463.59;1400448;88;20236;-86
2021/10/10 07:27:38;;;;;;;;;;;;;;;8.77;52.43;101462.16;1386279;89;20215;-85
2021/10/10 07:30:06;;;;;;;;;;;;;;;8.79;49.29;101462.42;1400457;88;20305;-85
2021/10/10 07:32:33;;;;;;;;;;;;;;;8.85;49.78;101457.18;1400443;88;20244;-86
2021/10/10 07:35:00;;;;;;;;;;;;;;;8.82;49.56;101462.69;1400405;88;20336;-85
2021/10/10 07:37:26;;;;;;;;;;;;;;;8.90;50.66;101462.98;1385532;89;20244;-85
2021/10/10 07:39:52;;;;;;;;;;;;;;;9.03;49.17;101457.63;1400869;88;20215;-87
2021/10/10 07:42:18;;;;;;;;;;;;;;;9.14;48.65;101453.72;1400580;88;20728;-87
2021/10/10 07:44:46;;;;;;;;;;;;;;;9.39;49.06;101451.43;1400456;88;20244;-86
2021/10/10 07:49:39;;;;;;;;;;;;;;;9.79;47.21;101445.77;1344681;93;20246;-86
2021/10/10 07:52:09;;;;;;;;;;;;;;;9.91;46.35;101435.56;1355909;85;21765;-86
2021/10/10 07:54:35;;;;;;;;;;;;;;;10.13;46.88;101441.84;1314481;94;20814;-90
2021/10/10 07:57:02;;;;;;;;;;;;;;;10.20;45.11;101439.06;1319854;95;20889;-88
2021/10/10 07:59:44;;;;;;;;;;;;;;;10.31;45.23;101436.45;1318579;94;20261;-91
2021/10/10 08:05:17;;;;;;;;;;;;;;;10.71;44.77;101429.78;1369792;89;20258;-92
2021/10/10 08:07:44;;;;;;;;;;;;;;;10.89;44.70;101424.30;1357161;93;20334;-89
2021/10/10 08:12:53;;;;;;;;;;;;;;;11.20;43.54;101419.98;1354542;92;20272;-90
2021/10/10 08:17:49;;;;;;;;;;;;;;;11.50;44.27;101413.06;1363494;87;22803;31
2021/10/10 08:20:18;;;;;;;;;;;;;;;11.57;42.67;101414.73;1364652;87;20458;31
2021/10/10 08:22:48;;;;;;;;;;;;;;;11.77;42.29;101411.22;1370750;87;21371;31
2021/10/10 08:25:16;;;;;;;;;;;;;;;11.77;41.74;101406.37;1369941;87;20238;31
2021/10/10 08:27:46;;;;;;;;;;;;;;;12.03;42.17;101405.52;1372595;87;20385;31
2021/10/10 08:30:15;;;;;;;;;;;;;;;12.06;39.86;101399.95;1371305;87;20254;31
2021/10/10 08:32:46;;;;;;;;;;;;;;;12.31;41.81;101398.61;1372755;87;20334;31
2021/10/10 08:35:15;;;;;;;;;;;;;;;12.46;39.23;101387.98;1367506;87;21826;31
2021/10/10 08:37:44;;;;;;;;;;;;;;;12.51;38.35;101395.52;1375339;87;20384;31
2021/10/10 08:40:11;;;;;;;;;;;;;;;12.61;38.66;101382.63;1371882;87;20254;31
2021/10/10 08:42:48;;;;;;;;;;;;;;;12.79;37.89;101384.59;1373470;87;21264;31
2021/10/10 08:47:46;;;;;;;;;;;;;;;13.09;38.30;101381.81;1381852;86;21992;31
2021/10/10 08:50:15;;;;;;;;;;;;;;;13.31;37.20;101378.52;1386145;86;20254;31
2021/10/10 08:52:52;;;;;;;;;;;;;;;13.47;37.79;101380.12;1366270;88;20461;31
2021/10/10 08:55:18;;;;;;;;;;;;;;;13.73;37.67;101381.66;1361298;88;20322;31
2021/10/10 08:57:47;;;;;;;;;;;;;;;13.83;36.89;101383.44;1368582;88;21440;31
2021/10/10 09:02:51;;;;;;;;;;;;;;;14.22;36.00;101373.47;1328219;91;22239;31
2021/10/10 09:05:17;;;;;;;;;;;;;;;14.13;34.53;101375.20;1353056;89;20182;-87
2021/10/10 09:07:45;;;;;;;;;;;;;;;14.43;35.24;101375.36;1378127;86;20313;-88
2021/10/10 09:10:28;;;;;;;;;;;;;;;14.75;34.26;101362.56;1381885;89;20805;-86
2021/10/10 09:13:07;;;;;;;;;;;;;;;15.19;34.54;101358.61;1381406;90;20298;-85
2021/10/10 09:15:37;;;;;;;;;;;;;;;15.22;33.53;101355.63;1381124;90;20291;-87
2021/10/10 09:18:04;;;;;;;;;;;;;;;15.11;32.27;101347.41;1381585;89;20261;-86
2021/10/10 09:20:45;;;;;;;;;;;;;;;15.28;32.19;101342.53;1381375;89;20245;-86
2021/10/10 09:23:21;;;;;;;;;;;;;;;16.26;33.78;101344.05;1381200;91;20247;-86
2021/10/10 09:25:52;;;;;;;;;;;;;;;16.89;32.39;101336.84;1380951;89;20269;-86
2021/10/10 09:28:19;;;;;;;;;;;;;;;17.71;29.24;101336.20;1377245;91;20283;-87
2021/10/10 09:31:07;;;;;;;;;;;;;;;18.52;28.45;101334.67;1381563;89;20238;-87
2021/10/10 09:33:47;;;;;;;;;;;;;;;19.00;27.73;101333.50;1381128;90;20842;-87
2021/10/10 09:36:21;;;;;;;;;;;;;;;19.51;27.88;101331.00;1381419;89;20783;-87
2021/10/10 09:38:50;;;;;;;;;;;;;;;19.90;26.69;101341.16;1382750;89;20721;-88
2021/10/10 09:44:54;;;;;;;;;;;;;;;20.45;27.87;101337.88;1381554;88;20255;-88
2021/10/10 10:00:06;;;;;;;;;;;;;;;19.70;25.37;101340.37;1398546;86;20275;-87
2021/10/10 10:02:39;;;;;;;;;;;;;;;19.68;25.83;101340.23;1400742;87;20780;-86
2021/10/10 10:08:42;;;;;;;;;;;;;;;20.34;26.07;101339.75;1401308;88;20222;-88
2021/10/10 10:20:39;;;;;;;;;;;;;;;20.59;25.13;101336.20;1371883;104;20256;-87
2021/10/10 10:23:06;;;;;;;;;;;;;;;20.36;24.80;101327.44;1364489;90;20335;-87
2021/10/10 10:25:34;;;;;;;;;;;;;;;20.17;25.67;101329.73;1372213;91;20828;-87
2021/10/10 10:28:02;;;;;;;;;;;;;;;20.13;25.80;101328.42;1372675;90;20257;-87
2021/10/10 10:30:29;;;;;;;;;;;;;;;20.18;24.56;101327.34;1354352;90;20259;-88
2021/10/10 10:32:55;;;;;;;;;;;;;;;19.86;25.02;101330.47;1357585;91;20295;-87
2021/10/10 10:35:21;;;;;;;;;;;;;;;20.34;25.29;101326.30;1364909;90;20339;-88
2021/10/10 10:37:49;;;;;;;;;;;;;;;20.09;24.18;101323.11;1368454;90;20353;-88
2021/10/10 10:40:26;;;;;;;;;;;;;;;20.18;24.66;101316.60;1371584;90;20324;-88
2021/10/10 10:42:53;;;;;;;;;;;;;;;20.17;25.01;101316.77;1358511;91;20943;-88
2021/10/10 10:45:34;;;;;;;;;;;;;;;20.29;25.45;101316.11;1356154;90;20282;-87
2021/10/10 10:48:07;;;;;;;;;;;;;;;19.98;25.01;101311.50;1358249;91;21071;-87
2021/10/10 10:50:40;;;;;;;;;;;;;;;19.81;24.82;101315.73;1348193;94;20251;-87
2021/10/10 10:53:09;;;;;;;;;;;;;;;20.21;24.47;101312.19;1351895;91;20341;-87
2021/10/10 10:55:38;;;;;;;;;;;;;;;20.19;25.05;101312.88;1348117;92;20317;-87
2021/10/10 10:58:10;;;;;;;;;;;;;;;20.35;25.37;101313.69;1347555;92;20386;-87
2021/10/10 11:00:47;;;;;;;;;;;;;;;20.51;25.23;101312.08;1347726;92;20338;-87
2021/10/10 11:03:25;;;;;;;;;;;;;;;20.52;24.81;101311.08;1348247;91;20841;-87
2021/10/10 11:06:19;;;;;;;;;;;;;;;20.75;24.54;101304.19;1346512;91;20290;-87
2021/10/10 11:08:44;;;;;;;;;;;;;;;20.62;24.78;101299.50;1369187;90;20300;-88
2021/10/10 11:11:15;;;;;;;;;;;;;;;20.76;24.95;101297.77;1372171;90;20363;-87
2021/10/10 11:13:46;;;;;;;;;;;;;;;20.46;25.05;101291.69;1366342;91;20294;-88
2021/10/10 11:16:32;;;;;;;;;;;;;;;20.79;24.80;101288.48;1369740;90;20273;-88
2021/10/10 11:19:04;;;;;;;;;;;;;;;20.59;24.43;101288.30;1371489;88;20797;-88
2021/10/10 11:21:42;;;;;;;;;;;;;;;20.70;23.70;101283.23;1361520;91;20261;-88
2021/10/10 11:24:18;;;;;;;;;;;;;;;20.66;24.43;101280.63;1364742;89;20276;-89
2021/10/10 11:26:41;;;;;;;;;;;;;;;20.91;23.80;101276.16;1357035;91;20963;-88
2021/10/10 11:29:09;;;;;;;;;;;;;;;21.07;23.91;101269.67;1340824;92;20276;-89
2021/10/10 11:31:37;;;;;;;;;;;;;;;21.29;23.46;101271.27;1340729;92;20291;-88
2021/10/10 11:34:11;;;;;;;;;;;;;;;21.27;23.30;101269.80;1359769;91;20291;-87
2021/10/10 11:36:41;;;;;;;;;;;;;;;21.32;23.09;101261.94;1359562;91;20284;-88
2021/10/10 11:39:18;;;;;;;;;;;;;;;21.47;23.22;101264.05;1357413;91;20343;-88
2021/10/10 11:41:46;;;;;;;;;;;;;;;21.69;23.11;101263.41;1359482;91;20276;-88
2021/10/10 11:44:24;;;;;;;;;;;;;;;21.71;22.85;101259.19;1359879;91;20296;-89
2021/10/10 11:46:56;;;;;;;;;;;;;;;21.36;23.10;101256.01;1359640;91;21095;-90
2021/10/10 11:49:41;;;;;;;;;;;;;;;22.02;23.11;101251.41;1359601;91;20251;-90
2021/10/10 11:52:35;;;;;;;;;;;;;;;21.96;23.27;101242.80;1368108;91;20322;-91
2021/10/10 11:57:55;;;;;;;;;;;;;;;22.12;22.18;101240.75;1377573;89;20248;-89
2021/10/10 12:00:26;;;;;;;;;;;;;;;22.34;22.64;101240.94;1377679;89;20249;-88
2021/10/10 12:02:53;;;;;;;;;;;;;;;22.58;23.28;101252.16;1379853;89;20329;-91
2021/10/10 12:05:24;;;;;;;;;;;;;;;22.64;22.72;101240.53;1392651;88;20768;-90
2021/10/10 12:07:59;;;;;;;;;;;;;;;23.09;22.28;101229.42;1392746;88;20246;-91
2021/10/10 12:10:25;;;;;;;;;;;;;;;22.73;22.05;101228.52;1392474;88;20329;-91
2021/10/10 12:12:55;;;;;;;;;;;;;;;22.30;21.59;101216.78;1392566;88;20260;-91
2021/10/10 12:15:28;;;;;;;;;;;;;;;22.60;22.64;101239.30;1392583;88;20388;-90
2021/10/10 12:17:57;;;;;;;;;;;;;;;23.02;21.28;101230.46;1392962;88;20224;-92
2021/10/10 12:20:27;;;;;;;;;;;;;;;22.33;21.54;101227.16;1392772;88;20239;-93
2021/10/10 12:22:59;;;;;;;;;;;;;;;22.84;22.06;101227.03;1392657;88;20745;-91
2021/10/10 12:25:38;;;;;;;;;;;;;;;22.11;21.52;101234.54;1393061;88;20313;-92
2021/10/10 12:28:13;;;;;;;;;;;;;;;22.44;21.79;101231.94;1392947;88;20224;-93
2021/10/10 12:30:59;;;;;;;;;;;;;;;22.61;21.52;101220.72;1392830;88;20661;-92
2021/10/10 12:33:28;;;;;;;;;;;;;;;22.87;21.42;101219.38;1392631;91;21135;-92
2021/10/10 12:36:10;;;;;;;;;;;;;;;23.22;21.28;101219.13;1392616;88;20255;-92
2021/10/10 12:38:39;;;;;;;;;;;;;;;23.25;21.52;101216.50;1392812;88;20344;-92
2021/10/10 12:41:26;;;;;;;;;;;;;;;23.35;20.36;101215.02;1392473;88;20343;-93
2021/10/10 12:43:56;;;;;;;;;;;;;;;23.84;21.03;101218.98;1378476;90;20278;-91
2021/10/10 12:46:26;;;;;;;;;;;;;;;23.82;20.11;101214.34;1375559;91;20841;-92
2021/10/10 12:49:00;;;;;;;;;;;;;;;24.30;20.63;101209.75;1375530;89;20256;-92
2021/10/10 12:51:29;;;;;;;;;;;;;;;23.25;20.54;101211.09;1375578;89;20382;-91
2021/10/10 12:54:10;;;;;;;;;;;;;;;23.23;21.38;101218.59;1375689;90;20242;-90
2021/10/10 12:56:36;;;;;;;;;;;;;;;23.57;21.25;101220.15;1375448;89;20384;-91
2021/10/10 12:59:02;;;;;;;;;;;;;;;23.35;21.22;101216.89;1362832;91;20740;-91
2021/10/10 13:01:31;;;;;;;;;;;;;;;23.35;20.69;101206.91;1357905;91;20326;-90
2021/10/10 13:03:59;;;;;;;;;;;;;;;23.13;20.74;101202.33;1358341;91;20249;-90
2021/10/10 13:06:26;;;;;;;;;;;;;;;23.81;21.08;101200.50;1355927;91;20265;-89
2021/10/10 13:08:54;;;;;;;;;;;;;;;24.04;20.26;101185.61;1355889;91;20307;-91
2021/10/10 13:12:10;;;;;;;;;;;;;;;24.04;20.00;101189.66;1355880;90;20249;-90
2021/10/10 13:14:36;;;;;;;;;;;;;;;24.04;19.49;101180.20;1355215;91;20303;-90
2021/10/10 13:17:03;;;;;;;;;;;;;;;24.48;20.65;101183.84;1355824;91;20884;-91
2021/10/10 13:19:30;;;;;;;;;;;;;;;24.46;19.47;101182.72;1374773;89;20345;-90
2021/10/10 13:21:58;;;;;;;;;;;;;;;24.12;19.60;101177.23;1355873;91;20235;-91
2021/10/10 13:24:24;;;;;;;;;;;;;;;24.12;19.70;101173.18;1360918;90;20231;-90
2021/10/10 13:26:51;;;;;;;;;;;;;;;24.22;19.91;101174.03;1351813;92;20238;-91
2021/10/10 13:29:34;;;;;;;;;;;;;;;24.32;19.97;101176.56;1344143;93;20268;-91
2021/10/10 13:32:10;;;;;;;;;;;;;;;24.74;19.33;101175.50;1346610;92;20393;-88
2021/10/10 13:34:36;;;;;;;;;;;;;;;24.88;19.30;101172.64;1348991;92;20366;-88
2021/10/10 13:37:02;;;;;;;;;;;;;;;24.01;19.46;101175.23;1345708;91;20407;-91
2021/10/10 13:39:28;;;;;;;;;;;;;;;24.38;19.97;101180.26;1347271;94;20252;-89
2021/10/10 13:41:54;;;;;;;;;;;;;;;24.18;19.80;101175.00;1355364;92;20780;-89
2021/10/10 13:44:20;;;;;;;;;;;;;;;23.04;20.43;101179.27;1359161;93;21192;-88
2021/10/10 13:46:48;;;;;;;;;;;;;;;22.62;21.21;101173.84;1343099;91;20297;-89
2021/10/10 13:49:14;;;;;;;;;;;;;;;22.15;21.83;101176.99;1341317;92;20342;-90
2021/10/10 13:51:40;;;;;;;;;;;;;;;21.90;22.38;101172.20;1341809;92;20261;-88
2021/10/10 13:54:07;;;;;;;;;;;;;;;21.73;22.52;101179.00;1341951;92;20771;-89
2021/10/10 13:56:33;;;;;;;;;;;;;;;21.48;22.85;101172.80;1348903;93;20395;-91
2021/10/10 13:58:59;;;;;;;;;;;;;;;20.90;23.59;101170.92;1357161;92;20251;-92
2021/10/10 14:01:25;;;;;;;;;;;;;;;21.12;23.65;101165.78;1326163;94;20298;-88
2021/10/10 14:03:51;;;;;;;;;;;;;;;20.94;23.99;101166.80;1364053;91;20236;-91
2021/10/10 14:06:19;;;;;;;;;;;;;;;21.06;23.87;101169.27;1355445;91;20272;-89
2021/10/10 14:08:47;;;;;;;;;;;;;;;20.98;23.75;101162.70;1354580;91;20736;-90
2021/10/10 14:12:06;;;;;;;;;;;;;;;20.68;27.81;101166.11;1347989;93;20254;-92
2021/10/10 14:14:32;;;;;;;;;;;;;;;20.83;23.53;101166.00;1334416;92;20231;-89
2021/10/10 14:16:59;;;;;;;;;;;;;;;20.91;23.45;101163.98;1344744;92;20260;-89
2021/10/10 14:19:25;;;;;;;;;;;;;;;21.06;24.00;101165.23;1353755;89;20333;-90
2021/10/10 14:21:51;;;;;;;;;;;;;;;21.30;22.89;101159.03;1372420;91;20248;-90
2021/10/10 14:24:17;;;;;;;;;;;;;;;21.78;23.57;101157.16;1378468;89;20820;-89
2021/10/10 14:26:48;;;;;;;;;;;;;;;21.91;23.42;101156.34;1343140;91;20326;-90
2021/10/10 14:29:14;;;;;;;;;;;;;;;22.39;22.33;101154.86;1344474;93;20252;-90
2021/10/10 14:31:40;;;;;;;;;;;;;;;22.63;23.07;101153.91;1362943;91;20258;-90
2021/10/10 14:34:06;;;;;;;;;;;;;;;23.26;22.09;101150.13;1357115;90;20298;-93
2021/10/10 14:36:32;;;;;;;;;;;;;;;23.37;21.08;101148.12;1349068;92;20285;-93
2021/10/10 14:39:00;;;;;;;;;;;;;;;23.50;21.62;101148.56;1349504;92;20261;-94
2021/10/10 14:41:37;;;;;;;;;;;;;;;23.65;21.08;101142.89;1365848;92;20757;-95
2021/10/10 14:44:36;;;;;;;;;;;;;;;23.76;21.06;101141.39;1364988;90;20341;-92
2021/10/10 14:46:34;;;;;;;;;;;;;;;24.07;21.35;101136.50;1346934;92;20321;-95
2021/10/10 14:48:59;;;;;;;;;;;;;;;24.12;20.52;101143.44;1364883;92;20258;-94
2021/10/10 14:51:28;;;;;;;;;;;;;;;23.73;21.09;101145.87;1370187;91;20219;-94
2021/10/10 14:53:54;;;;;;;;;;;;;;;23.53;20.54;101146.78;1384672;89;20227;-94
2021/10/10 14:56:23;;;;;;;;;;;;;;;23.36;21.38;101139.72;1384225;89;20755;-92
2021/10/10 14:58:49;;;;;;;;;;;;;;;22.35;21.70;101146.03;1385217;89;20233;-93
2021/10/10 15:01:15;;;;;;;;;;;;;;;21.72;22.56;101143.64;1386308;89;20256;-93
2021/10/10 15:04:08;;;;;;;;;;;;;;;21.04;23.57;101134.16;1387198;89;20883;-92
2021/10/10 15:06:50;;;;;;;;;;;;;;;20.59;24.02;101147.95;1387639;89;20196;-93
2021/10/10 15:20:20;;;;;;;;;;;;;;;18.95;27.38;101137.39;1387757;86;20337;31
2021/10/10 15:22:49;;;;;;;;;;;;;;;18.47;29.05;101143.06;1316660;93;20666;-92
2021/10/10 15:25:23;;;;;;;;;;;;;;;18.19;29.74;101137.96;1310874;95;20214;-95
2021/10/10 15:27:50;;;;;;;;;;;;;;;17.71;29.75;101133.25;1311084;94;20206;-96
2021/10/10 15:30:34;;;;;;;;;;;;;;;17.24;31.19;101131.51;1311434;94;20228;-96
2021/10/10 15:33:00;;;;;;;;;;;;;;;16.79;31.80;101128.98;1342315;86;20721;-94
2021/10/10 15:35:26;;;;;;;;;;;;;;;16.36;32.51;101121.67;1354476;91;20259;-94
2021/10/10 15:37:58;;;;;;;;;;;;;;;16.03;33.80;101117.69;1364213;86;21598;31
2021/10/10 15:40:23;;;;;;;;;;;;;;;15.71;35.01;101115.33;1352058;87;20347;-94
2021/10/10 15:42:51;;;;;;;;;;;;;;;15.44;35.52;101115.55;1327371;94;20279;-94
2021/10/10 15:45:18;;;;;;;;;;;;;;;15.17;36.32;101114.80;1340102;92;20733;-95
2021/10/10 15:47:54;;;;;;;;;;;;;;;14.87;36.88;101105.50;1341517;92;20780;-95